sensor_id;sensor_type;location;lat;lon;timestamp;pressure;altitude;pressure_sealevel;temperature;humidity
71621;BME280;59471;42.254;23.102;2024-02-26T00:01:42;95464.75;;;7.18;100.00
71621;BME280;59471;42.254;23.102;2024-02-26T00:04:11;95466.41;;;7.19;100.00
71621;BME280;59471;42.254;23.102;2024-02-26T00:06:38;95459.56;;;7.27;100.00
71621;BME280;59471;42.254;23.102;2024-02-26T00:09:07;95458.81;;;7.57;100.00
71621;BME280;59471;42.254;23.102;2024-02-26T00:11:33;95455.00;;;7.29;100.00
71621;BME280;59471;42.254;23.102;2024-02-26T00:13:59;95457.44;;;7.30;100.00
71621;BME280;59471;42.254;23.102;2024-02-26T00:16:24;95450.78;;;7.19;100.00
71621;BME280;59471;42.254;23.102;2024-02-26T00:18:50;95442.25;;;7.42;100.00
71621;BME280;59471;42.254;23.102;2024-02-26T00:21:15;95442.28;;;7.34;100.00
71621;BME280;59471;42.254;23.102;2024-02-26T00:23:41;95432.19;;;7.31;100.00
71621;BME280;59471;42.254;23.102;2024-02-26T00:26:07;95434.50;;;7.17;100.00
71621;BME280;59471;42.254;23.102;2024-02-26T00:28:33;95439.03;;;7.24;100.00
71621;BME280;59471;42.254;23.102;2024-02-26T00:30:59;95443.25;;;7.25;100.00
71621;BME280;59471;42.254;23.102;2024-02-26T00:33:24;95441.03;;;7.05;100.00
71621;BME280;59471;42.254;23.102;2024-02-26T00:35:50;95443.91;;;7.35;100.00
71621;BME280;59471;42.254;23.102;2024-02-26T00:38:15;95442.31;;;7.17;100.00
71621;BME280;59471;42.254;23.102;2024-02-26T00:40:41;95444.91;;;7.26;100.00
71621;BME280;59471;42.254;23.102;2024-02-26T00:43:07;95436.34;;;7.56;100.00
71621;BME280;59471;42.254;23.102;2024-02-26T00:45:32;95430.69;;;7.84;98.61
71621;BME280;59471;42.254;23.102;2024-02-26T00:47:58;95436.72;;;7.37;100.00
71621;BME280;59471;42.254;23.102;2024-02-26T00:50:26;95438.00;;;7.49;100.00
71621;BME280;59471;42.254;23.102;2024-02-26T00:52:52;95437.25;;;7.24;100.00
71621;BME280;59471;42.254;23.102;2024-02-26T00:55:17;95434.94;;;7.37;100.00
71621;BME280;59471;42.254;23.102;2024-02-26T00:57:43;95438.56;;;7.12;100.00
71621;BME280;59471;42.254;23.102;2024-02-26T01:00:09;95435.44;;;7.41;98.74
71621;BME280;59471;42.254;23.102;2024-02-26T01:02:35;95427.78;;;7.31;99.80
71621;BME280;59471;42.254;23.102;2024-02-26T01:05:00;95430.91;;;7.27;100.00
71621;BME280;59471;42.254;23.102;2024-02-26T01:07:26;95426.72;;;7.09;100.00
71621;BME280;59471;42.254;23.102;2024-02-26T01:09:51;95425.78;;;6.94;100.00
71621;BME280;59471;42.254;23.102;2024-02-26T01:12:17;95426.44;;;6.88;100.00
71621;BME280;59471;42.254;23.102;2024-02-26T01:14:42;95414.69;;;7.00;100.00
71621;BME280;59471;42.254;23.102;2024-02-26T01:17:08;95410.28;;;7.01;100.00
71621;BME280;59471;42.254;23.102;2024-02-26T01:19:33;95412.38;;;7.05;100.00
71621;BME280;59471;42.254;23.102;2024-02-26T01:21:59;95419.53;;;7.11;100.00
71621;BME280;59471;42.254;23.102;2024-02-26T01:24:24;95412.00;;;7.25;100.00
71621;BME280;59471;42.254;23.102;2024-02-26T01:26:50;95412.66;;;7.27;100.00
71621;BME280;59471;42.254;23.102;2024-02-26T01:29:15;95397.69;;;7.29;100.00
71621;BME280;59471;42.254;23.102;2024-02-26T01:31:41;95396.97;;;6.79;100.00
71621;BME280;59471;42.254;23.102;2024-02-26T01:34:06;95397.00;;;6.63;100.00
71621;BME280;59471;42.254;23.102;2024-02-26T01:36:32;95392.75;;;6.62;100.00
71621;BME280;59471;42.254;23.102;2024-02-26T01:38:57;95390.00;;;6.71;100.00
71621;BME280;59471;42.254;23.102;2024-02-26T01:41:23;95387.66;;;7.01;100.00
71621;BME280;59471;42.254;23.102;2024-02-26T01:43:48;95391.09;;;7.02;100.00
71621;BME280;59471;42.254;23.102;2024-02-26T01:46:14;95384.03;;;7.27;100.00
71621;BME280;59471;42.254;23.102;2024-02-26T01:48:44;95377.47;;;7.39;100.00
71621;BME280;59471;42.254;23.102;2024-02-26T01:51:14;95380.44;;;7.28;100.00
71621;BME280;59471;42.254;23.102;2024-02-26T01:53:40;95376.84;;;7.29;100.00
71621;BME280;59471;42.254;23.102;2024-02-26T01:56:06;95374.44;;;7.19;100.00
71621;BME280;59471;42.254;23.102;2024-02-26T01:58:33;95382.00;;;7.45;100.00
71621;BME280;59471;42.254;23.102;2024-02-26T02:01:01;95383.75;;;7.53;100.00
71621;BME280;59471;42.254;23.102;2024-02-26T02:03:28;95383.28;;;7.49;99.97
71621;BME280;59471;42.254;23.102;2024-02-26T02:05:55;95393.16;;;7.62;100.00
71621;BME280;59471;42.254;23.102;2024-02-26T02:08:21;95386.50;;;7.59;99.81
71621;BME280;59471;42.254;23.102;2024-02-26T02:10:49;95373.66;;;7.58;99.36
71621;BME280;59471;42.254;23.102;2024-02-26T02:13:15;95370.09;;;7.51;99.45
71621;BME280;59471;42.254;23.102;2024-02-26T02:15:41;95389.03;;;7.36;99.52
71621;BME280;59471;42.254;23.102;2024-02-26T02:18:07;95384.34;;;7.24;100.00
71621;BME280;59471;42.254;23.102;2024-02-26T02:20:33;95383.28;;;7.02;100.00
71621;BME280;59471;42.254;23.102;2024-02-26T02:22:59;95388.00;;;6.90;100.00
71621;BME280;59471;42.254;23.102;2024-02-26T02:25:25;95388.00;;;6.90;100.00
71621;BME280;59471;42.254;23.102;2024-02-26T02:27:54;95392.94;;;6.60;100.00
71621;BME280;59471;42.254;23.102;2024-02-26T02:30:30;95391.00;;;6.62;100.00
71621;BME280;59471;42.254;23.102;2024-02-26T02:32:57;95392.44;;;6.81;100.00
71621;BME280;59471;42.254;23.102;2024-02-26T02:35:26;95395.84;;;6.82;100.00
71621;BME280;59471;42.254;23.102;2024-02-26T02:37:52;95392.75;;;6.78;100.00
71621;BME280;59471;42.254;23.102;2024-02-26T02:40:18;95390.16;;;6.78;100.00
71621;BME280;59471;42.254;23.102;2024-02-26T02:42:43;95384.13;;;6.86;100.00
71621;BME280;59471;42.254;23.102;2024-02-26T02:45:09;95389.47;;;7.01;100.00
71621;BME280;59471;42.254;23.102;2024-02-26T02:47:38;95395.44;;;7.17;100.00
71621;BME280;59471;42.254;23.102;2024-02-26T02:50:04;95381.66;;;6.92;100.00
71621;BME280;59471;42.254;23.102;2024-02-26T02:52:29;95387.66;;;7.01;100.00
71621;BME280;59471;42.254;23.102;2024-02-26T02:54:55;95384.75;;;7.04;100.00
71621;BME280;59471;42.254;23.102;2024-02-26T02:57:20;95389.94;;;7.04;100.00
71621;BME280;59471;42.254;23.102;2024-02-26T02:59:46;95385.63;;;7.28;100.00
71621;BME280;59471;42.254;23.102;2024-02-26T03:02:12;95391.78;;;7.43;98.96
71621;BME280;59471;42.254;23.102;2024-02-26T03:04:37;95391.84;;;7.18;100.00
71621;BME280;59471;42.254;23.102;2024-02-26T03:07:03;95394.13;;;7.22;100.00
71621;BME280;59471;42.254;23.102;2024-02-26T03:09:28;95388.25;;;7.28;99.93
71621;BME280;59471;42.254;23.102;2024-02-26T03:11:54;95382.47;;;7.01;99.90
71621;BME280;59471;42.254;23.102;2024-02-26T03:14:20;95382.75;;;7.23;99.46
71621;BME280;59471;42.254;23.102;2024-02-26T03:16:45;95381.09;;;7.22;98.88
71621;BME280;59471;42.254;23.102;2024-02-26T03:19:14;95376.75;;;7.06;100.00
71621;BME280;59471;42.254;23.102;2024-02-26T03:21:41;95377.53;;;7.14;100.00
71621;BME280;59471;42.254;23.102;2024-02-26T03:24:07;95371.06;;;7.10;100.00
71621;BME280;59471;42.254;23.102;2024-02-26T03:26:35;95369.38;;;7.26;100.00
71621;BME280;59471;42.254;23.102;2024-02-26T03:29:01;95359.13;;;7.24;100.00
71621;BME280;59471;42.254;23.102;2024-02-26T03:31:28;95349.22;;;7.11;100.00
71621;BME280;59471;42.254;23.102;2024-02-26T03:33:54;95361.53;;;7.34;100.00
71621;BME280;59471;42.254;23.102;2024-02-26T03:36:19;95355.91;;;7.53;99.77
71621;BME280;59471;42.254;23.102;2024-02-26T03:38:46;95353.72;;;7.34;100.00
71621;BME280;59471;42.254;23.102;2024-02-26T03:41:12;95354.97;;;7.46;100.00
71621;BME280;59471;42.254;23.102;2024-02-26T03:43:38;95361.06;;;7.70;99.48
71621;BME280;59471;42.254;23.102;2024-02-26T03:46:03;95354.81;;;7.48;99.91
71621;BME280;59471;42.254;23.102;2024-02-26T03:48:28;95346.91;;;7.25;100.00
71621;BME280;59471;42.254;23.102;2024-02-26T03:50:54;95352.00;;;7.57;99.27
71621;BME280;59471;42.254;23.102;2024-02-26T03:53:19;95355.00;;;7.38;99.96
71621;BME280;59471;42.254;23.102;2024-02-26T03:55:45;95354.69;;;7.41;100.00
71621;BME280;59471;42.254;23.102;2024-02-26T03:58:12;95352.81;;;7.50;100.00
71621;BME280;59471;42.254;23.102;2024-02-26T04:00:38;95351.34;;;7.55;99.72
71621;BME280;59471;42.254;23.102;2024-02-26T04:03:03;95349.72;;;7.54;100.00
71621;BME280;59471;42.254;23.102;2024-02-26T04:05:29;95343.91;;;7.44;99.98
71621;BME280;59471;42.254;23.102;2024-02-26T04:07:54;95341.00;;;7.39;100.00
71621;BME280;59471;42.254;23.102;2024-02-26T04:10:20;95339.38;;;7.38;100.00
71621;BME280;59471;42.254;23.102;2024-02-26T04:12:45;95340.25;;;7.53;100.00
71621;BME280;59471;42.254;23.102;2024-02-26T04:15:12;95330.50;;;7.78;98.78
71621;BME280;59471;42.254;23.102;2024-02-26T04:17:37;95336.63;;;7.31;99.82
71621;BME280;59471;42.254;23.102;2024-02-26T04:20:04;95337.47;;;7.24;100.00
71621;BME280;59471;42.254;23.102;2024-02-26T04:22:30;95338.41;;;7.31;100.00
71621;BME280;59471;42.254;23.102;2024-02-26T04:24:57;95339.63;;;7.51;100.00
71621;BME280;59471;42.254;23.102;2024-02-26T04:27:22;95328.56;;;7.49;100.00
71621;BME280;59471;42.254;23.102;2024-02-26T04:29:48;95329.22;;;7.51;100.00
71621;BME280;59471;42.254;23.102;2024-02-26T04:32:13;95328.88;;;7.54;100.00
71621;BME280;59471;42.254;23.102;2024-02-26T04:34:39;95322.09;;;7.45;99.63
71621;BME280;59471;42.254;23.102;2024-02-26T04:37:04;95321.75;;;7.48;100.00
71621;BME280;59471;42.254;23.102;2024-02-26T04:39:30;95323.41;;;7.41;100.00
71621;BME280;59471;42.254;23.102;2024-02-26T04:41:55;95331.00;;;7.19;100.00
71621;BME280;59471;42.254;23.102;2024-02-26T04:44:21;95333.66;;;7.42;100.00
71621;BME280;59471;42.254;23.102;2024-02-26T04:46:46;95328.53;;;7.57;99.68
71621;BME280;59471;42.254;23.102;2024-02-26T04:49:12;95326.75;;;7.50;99.36
71621;BME280;59471;42.254;23.102;2024-02-26T04:51:37;95329.91;;;7.45;99.62
71621;BME280;59471;42.254;23.102;2024-02-26T04:54:03;95330.69;;;7.54;100.00
71621;BME280;59471;42.254;23.102;2024-02-26T04:56:28;95332.94;;;7.57;99.51
71621;BME280;59471;42.254;23.102;2024-02-26T04:58:54;95329.16;;;7.59;98.93
71621;BME280;59471;42.254;23.102;2024-02-26T05:01:19;95328.47;;;7.65;98.21
71621;BME280;59471;42.254;23.102;2024-02-26T05:03:45;95330.56;;;7.47;99.62
71621;BME280;59471;42.254;23.102;2024-02-26T05:06:10;95336.09;;;7.44;99.53
71621;BME280;59471;42.254;23.102;2024-02-26T05:08:36;95345.75;;;7.35;100.00
71621;BME280;59471;42.254;23.102;2024-02-26T05:11:03;95345.59;;;7.29;100.00
71621;BME280;59471;42.254;23.102;2024-02-26T05:13:29;95349.72;;;7.15;100.00
71621;BME280;59471;42.254;23.102;2024-02-26T05:15:54;95361.38;;;7.35;100.00
71621;BME280;59471;42.254;23.102;2024-02-26T05:18:20;95361.91;;;7.23;100.00
71621;BME280;59471;42.254;23.102;2024-02-26T05:20:47;95358.66;;;7.12;100.00
71621;BME280;59471;42.254;23.102;2024-02-26T05:23:12;95363.53;;;7.15;100.00
71621;BME280;59471;42.254;23.102;2024-02-26T05:25:38;95370.84;;;7.28;100.00
71621;BME280;59471;42.254;23.102;2024-02-26T05:28:04;95368.44;;;7.10;100.00
71621;BME280;59471;42.254;23.102;2024-02-26T05:30:29;95367.78;;;7.08;100.00
71621;BME280;59471;42.254;23.102;2024-02-26T05:32:55;95374.66;;;7.01;100.00
71621;BME280;59471;42.254;23.102;2024-02-26T05:35:20;95370.25;;;7.02;100.00
71621;BME280;59471;42.254;23.102;2024-02-26T05:37:46;95374.94;;;7.14;100.00
71621;BME280;59471;42.254;23.102;2024-02-26T05:40:11;95372.31;;;7.23;100.00
71621;BME280;59471;42.254;23.102;2024-02-26T05:42:37;95374.53;;;7.34;100.00
71621;BME280;59471;42.254;23.102;2024-02-26T05:45:03;95384.28;;;7.40;100.00
71621;BME280;59471;42.254;23.102;2024-02-26T05:47:34;95381.31;;;7.04;100.00
71621;BME280;59471;42.254;23.102;2024-02-26T05:50:01;95390.91;;;7.11;100.00
71621;BME280;59471;42.254;23.102;2024-02-26T05:52:27;95396.38;;;7.25;100.00
71621;BME280;59471;42.254;23.102;2024-02-26T05:54:54;95390.22;;;7.17;100.00
71621;BME280;59471;42.254;23.102;2024-02-26T05:57:20;95400.56;;;7.42;100.00
71621;BME280;59471;42.254;23.102;2024-02-26T05:59:45;95394.09;;;7.30;100.00
71621;BME280;59471;42.254;23.102;2024-02-26T06:02:11;95397.44;;;7.55;100.00
71621;BME280;59471;42.254;23.102;2024-02-26T06:04:36;95394.66;;;7.56;100.00
71621;BME280;59471;42.254;23.102;2024-02-26T06:07:02;95396.69;;;7.38;100.00
71621;BME280;59471;42.254;23.102;2024-02-26T06:09:28;95387.28;;;7.29;100.00
71621;BME280;59471;42.254;23.102;2024-02-26T06:11:53;95391.09;;;7.49;100.00
71621;BME280;59471;42.254;23.102;2024-02-26T06:14:19;95394.31;;;7.59;100.00
71621;BME280;59471;42.254;23.102;2024-02-26T06:16:46;95396.34;;;7.41;100.00
71621;BME280;59471;42.254;23.102;2024-02-26T06:19:12;95380.56;;;7.34;100.00
71621;BME280;59471;42.254;23.102;2024-02-26T06:21:37;95391.16;;;7.41;100.00
71621;BME280;59471;42.254;23.102;2024-02-26T06:24:03;95400.81;;;7.63;100.00
71621;BME280;59471;42.254;23.102;2024-02-26T06:26:29;95390.41;;;7.63;100.00
71621;BME280;59471;42.254;23.102;2024-02-26T06:28:55;95384.16;;;7.73;100.00
71621;BME280;59471;42.254;23.102;2024-02-26T06:31:21;95398.63;;;7.75;100.00
71621;BME280;59471;42.254;23.102;2024-02-26T06:33:48;95397.25;;;7.87;100.00
71621;BME280;59471;42.254;23.102;2024-02-26T06:36:15;95398.78;;;7.82;100.00
71621;BME280;59471;42.254;23.102;2024-02-26T06:38:41;95395.38;;;7.42;100.00
71621;BME280;59471;42.254;23.102;2024-02-26T06:41:07;95400.41;;;7.43;100.00
71621;BME280;59471;42.254;23.102;2024-02-26T06:43:32;95393.69;;;7.49;100.00
71621;BME280;59471;42.254;23.102;2024-02-26T06:45:58;95402.75;;;7.70;100.00
71621;BME280;59471;42.254;23.102;2024-02-26T06:48:24;95397.81;;;7.75;100.00
71621;BME280;59471;42.254;23.102;2024-02-26T06:50:49;95403.31;;;7.49;100.00
71621;BME280;59471;42.254;23.102;2024-02-26T06:53:15;95406.03;;;7.63;100.00
71621;BME280;59471;42.254;23.102;2024-02-26T06:55:41;95398.34;;;8.01;100.00
71621;BME280;59471;42.254;23.102;2024-02-26T06:58:08;95414.28;;;8.06;99.73
71621;BME280;59471;42.254;23.102;2024-02-26T07:00:34;95413.56;;;8.21;99.89
71621;BME280;59471;42.254;23.102;2024-02-26T07:03:00;95418.53;;;8.39;99.63
71621;BME280;59471;42.254;23.102;2024-02-26T07:05:26;95413.97;;;8.32;98.97
71621;BME280;59471;42.254;23.102;2024-02-26T07:07:52;95412.50;;;8.30;98.88
71621;BME280;59471;42.254;23.102;2024-02-26T07:10:18;95432.84;;;8.43;99.03
71621;BME280;59471;42.254;23.102;2024-02-26T07:12:44;95428.78;;;8.40;98.13
71621;BME280;59471;42.254;23.102;2024-02-26T07:15:10;95422.31;;;8.51;98.57
71621;BME280;59471;42.254;23.102;2024-02-26T07:17:35;95430.84;;;8.68;97.51
71621;BME280;59471;42.254;23.102;2024-02-26T07:20:01;95429.72;;;8.85;97.02
71621;BME280;59471;42.254;23.102;2024-02-26T07:22:29;95427.22;;;8.92;95.81
71621;BME280;59471;42.254;23.102;2024-02-26T07:24:55;95428.16;;;9.14;95.39
71621;BME280;59471;42.254;23.102;2024-02-26T07:27:21;95436.00;;;9.28;94.36
71621;BME280;59471;42.254;23.102;2024-02-26T07:29:47;95430.28;;;9.33;94.53
71621;BME280;59471;42.254;23.102;2024-02-26T07:32:12;95437.56;;;9.38;95.23
71621;BME280;59471;42.254;23.102;2024-02-26T07:34:38;95434.03;;;9.45;90.69
71621;BME280;59471;42.254;23.102;2024-02-26T07:37:07;95423.59;;;9.31;91.35
71621;BME280;59471;42.254;23.102;2024-02-26T07:39:33;95433.25;;;9.30;90.87
71621;BME280;59471;42.254;23.102;2024-02-26T07:41:59;95431.50;;;9.67;88.59
71621;BME280;59471;42.254;23.102;2024-02-26T07:44:24;95434.47;;;9.93;86.39
71621;BME280;59471;42.254;23.102;2024-02-26T07:46:50;95429.78;;;9.89;86.95
71621;BME280;59471;42.254;23.102;2024-02-26T07:49:15;95427.63;;;9.78;88.35
71621;BME280;59471;42.254;23.102;2024-02-26T07:51:41;95423.94;;;9.72;87.68
71621;BME280;59471;42.254;23.102;2024-02-26T07:54:07;95420.31;;;9.73;87.51
71621;BME280;59471;42.254;23.102;2024-02-26T07:56:32;95417.41;;;9.97;86.43
71621;BME280;59471;42.254;23.102;2024-02-26T07:58:58;95411.09;;;9.77;87.21
71621;BME280;59471;42.254;23.102;2024-02-26T08:01:23;95412.91;;;9.77;87.51
71621;BME280;59471;42.254;23.102;2024-02-26T08:03:51;95412.03;;;9.84;87.21
71621;BME280;59471;42.254;23.102;2024-02-26T08:06:16;95417.09;;;9.71;87.96
71621;BME280;59471;42.254;23.102;2024-02-26T08:08:42;95411.81;;;10.01;85.56
71621;BME280;59471;42.254;23.102;2024-02-26T08:11:09;95407.44;;;10.08;84.99
71621;BME280;59471;42.254;23.102;2024-02-26T08:13:34;95405.31;;;9.96;85.73
71621;BME280;59471;42.254;23.102;2024-02-26T08:16:01;95405.84;;;10.07;85.25
71621;BME280;59471;42.254;23.102;2024-02-26T08:18:26;95400.59;;;10.07;84.29
71621;BME280;59471;42.254;23.102;2024-02-26T08:20:52;95398.22;;;10.12;84.54
71621;BME280;59471;42.254;23.102;2024-02-26T08:23:18;95410.50;;;10.26;83.06
71621;BME280;59471;42.254;23.102;2024-02-26T08:25:43;95410.75;;;10.31;83.24
71621;BME280;59471;42.254;23.102;2024-02-26T08:28:09;95411.47;;;10.25;84.70
71621;BME280;59471;42.254;23.102;2024-02-26T08:30:38;95408.31;;;10.15;84.04
71621;BME280;59471;42.254;23.102;2024-02-26T08:33:04;95408.31;;;10.15;84.14
71621;BME280;59471;42.254;23.102;2024-02-26T08:35:29;95409.09;;;10.09;85.11
71621;BME280;59471;42.254;23.102;2024-02-26T08:37:55;95411.47;;;10.25;83.77
71621;BME280;59471;42.254;23.102;2024-02-26T08:40:20;95405.75;;;10.36;83.52
71621;BME280;59471;42.254;23.102;2024-02-26T08:42:46;95410.63;;;10.39;83.19
71621;BME280;59471;42.254;23.102;2024-02-26T08:45:12;95411.94;;;10.50;82.86
71621;BME280;59471;42.254;23.102;2024-02-26T08:47:38;95411.22;;;10.56;82.99
71621;BME280;59471;42.254;23.102;2024-02-26T08:50:04;95396.16;;;10.65;83.42
71621;BME280;59471;42.254;23.102;2024-02-26T08:52:30;95403.34;;;10.84;81.90
71621;BME280;59471;42.254;23.102;2024-02-26T08:54:56;95400.09;;;11.04;80.99
71621;BME280;59471;42.254;23.102;2024-02-26T08:57:22;95391.38;;;10.97;81.33
71621;BME280;59471;42.254;23.102;2024-02-26T08:59:48;95394.63;;;10.99;80.79
71621;BME280;59471;42.254;23.102;2024-02-26T09:02:13;95390.78;;;10.73;81.52
71621;BME280;59471;42.254;23.102;2024-02-26T09:04:39;95384.66;;;10.87;81.88
71621;BME280;59471;42.254;23.102;2024-02-26T09:07:04;95383.38;;;11.05;80.64
71621;BME280;59471;42.254;23.102;2024-02-26T09:09:30;95388.69;;;11.18;79.46
71621;BME280;59471;42.254;23.102;2024-02-26T09:11:55;95382.22;;;11.14;79.54
71621;BME280;59471;42.254;23.102;2024-02-26T09:14:21;95385.31;;;11.24;79.47
71621;BME280;59471;42.254;23.102;2024-02-26T09:16:47;95383.78;;;11.36;80.09
71621;BME280;59471;42.254;23.102;2024-02-26T09:19:17;95385.97;;;11.33;78.91
71621;BME280;59471;42.254;23.102;2024-02-26T09:21:45;95383.00;;;11.43;78.21
71621;BME280;59471;42.254;23.102;2024-02-26T09:24:12;95383.25;;;11.48;78.32
71621;BME280;59471;42.254;23.102;2024-02-26T09:26:37;95384.28;;;11.25;78.81
71621;BME280;59471;42.254;23.102;2024-02-26T09:29:03;95390.78;;;11.29;78.10
71621;BME280;59471;42.254;23.102;2024-02-26T09:31:33;95386.25;;;11.45;77.94
71621;BME280;59471;42.254;23.102;2024-02-26T09:33:59;95388.59;;;11.74;77.13
71621;BME280;59471;42.254;23.102;2024-02-26T09:36:25;95391.84;;;11.76;77.33
71621;BME280;59471;42.254;23.102;2024-02-26T09:38:50;95394.00;;;11.66;78.14
71621;BME280;59471;42.254;23.102;2024-02-26T09:41:16;95397.56;;;11.87;77.49
71621;BME280;59471;42.254;23.102;2024-02-26T09:43:44;95414.66;;;12.24;75.29
71621;BME280;59471;42.254;23.102;2024-02-26T09:46:11;95409.75;;;12.08;74.52
71621;BME280;59471;42.254;23.102;2024-02-26T09:48:37;95410.06;;;11.85;75.47
71621;BME280;59471;42.254;23.102;2024-02-26T09:51:04;95417.41;;;12.02;75.73
71621;BME280;59471;42.254;23.102;2024-02-26T09:53:30;95412.81;;;12.18;74.81
71621;BME280;59471;42.254;23.102;2024-02-26T09:56:00;95405.34;;;12.15;75.12
71621;BME280;59471;42.254;23.102;2024-02-26T09:58:28;95413.38;;;12.06;75.74
71621;BME280;59471;42.254;23.102;2024-02-26T10:00:56;95401.28;;;12.12;75.48
71621;BME280;59471;42.254;23.102;2024-02-26T10:03:28;95396.66;;;12.14;74.62
71621;BME280;59471;42.254;23.102;2024-02-26T10:05:57;95394.22;;;12.19;75.09
71621;BME280;59471;42.254;23.102;2024-02-26T10:08:23;95380.34;;;12.45;73.65
71621;BME280;59471;42.254;23.102;2024-02-26T10:10:49;95390.25;;;12.43;73.11
71621;BME280;59471;42.254;23.102;2024-02-26T10:13:15;95381.97;;;12.40;72.73
71621;BME280;59471;42.254;23.102;2024-02-26T10:15:41;95381.97;;;12.40;72.20
71621;BME280;59471;42.254;23.102;2024-02-26T10:18:06;95374.50;;;12.57;73.42
71621;BME280;59471;42.254;23.102;2024-02-26T10:20:32;95373.50;;;12.84;72.61
71621;BME280;59471;42.254;23.102;2024-02-26T10:22:58;95369.06;;;12.85;72.20
71621;BME280;59471;42.254;23.102;2024-02-26T10:25:27;95359.75;;;12.89;73.34
71621;BME280;59471;42.254;23.102;2024-02-26T10:27:53;95366.81;;;12.88;72.19
71621;BME280;59471;42.254;23.102;2024-02-26T10:30:20;95363.34;;;13.14;70.26
71621;BME280;59471;42.254;23.102;2024-02-26T10:32:47;95362.97;;;13.31;71.19
71621;BME280;59471;42.254;23.102;2024-02-26T10:35:16;95362.13;;;13.30;69.28
71621;BME280;59471;42.254;23.102;2024-02-26T10:37:49;95364.16;;;13.21;68.98
71621;BME280;59471;42.254;23.102;2024-02-26T10:40:15;95354.06;;;13.32;69.28
71621;BME280;59471;42.254;23.102;2024-02-26T10:42:43;95352.16;;;13.52;67.44
71621;BME280;59471;42.254;23.102;2024-02-26T10:45:09;95363.50;;;13.46;68.11
71621;BME280;59471;42.254;23.102;2024-02-26T10:47:36;95352.22;;;13.32;68.29
71621;BME280;59471;42.254;23.102;2024-02-26T10:50:03;95350.00;;;13.22;67.99
71621;BME280;59471;42.254;23.102;2024-02-26T10:52:33;95349.78;;;13.44;68.39
71621;BME280;59471;42.254;23.102;2024-02-26T10:55:04;95340.88;;;13.97;68.80
71621;BME280;59471;42.254;23.102;2024-02-26T10:57:35;95333.69;;;14.10;66.70
71621;BME280;59471;42.254;23.102;2024-02-26T11:00:04;95336.75;;;14.07;65.89
71621;BME280;59471;42.254;23.102;2024-02-26T11:02:32;95336.66;;;14.21;66.16
71621;BME280;59471;42.254;23.102;2024-02-26T11:05:02;95343.63;;;14.08;64.60
71621;BME280;59471;42.254;23.102;2024-02-26T11:07:30;95333.97;;;13.96;64.98
71621;BME280;59471;42.254;23.102;2024-02-26T11:09:59;95327.47;;;13.98;66.08
71621;BME280;59471;42.254;23.102;2024-02-26T11:12:30;95324.63;;;14.06;65.87
71621;BME280;59471;42.254;23.102;2024-02-26T11:14:57;95316.72;;;14.38;64.15
71621;BME280;59471;42.254;23.102;2024-02-26T11:17:28;95321.34;;;14.11;66.05
71621;BME280;59471;42.254;23.102;2024-02-26T11:19:57;95329.31;;;14.29;64.54
71621;BME280;59471;42.254;23.102;2024-02-26T11:22:26;95318.50;;;14.12;64.28
71621;BME280;59471;42.254;23.102;2024-02-26T11:24:56;95316.56;;;13.95;65.75
71621;BME280;59471;42.254;23.102;2024-02-26T11:27:37;95321.69;;;13.83;65.24
71621;BME280;59471;42.254;23.102;2024-02-26T11:30:09;95311.84;;;14.10;64.71
71621;BME280;59471;42.254;23.102;2024-02-26T11:32:36;95314.41;;;14.17;63.56
71621;BME280;59471;42.254;23.102;2024-02-26T11:35:04;95316.44;;;14.14;65.18
71621;BME280;59471;42.254;23.102;2024-02-26T11:37:31;95301.38;;;14.28;64.82
71621;BME280;59471;42.254;23.102;2024-02-26T11:39:59;95311.28;;;14.33;62.57
71621;BME280;59471;42.254;23.102;2024-02-26T11:42:25;95315.44;;;14.16;65.29
71621;BME280;59471;42.254;23.102;2024-02-26T11:44:51;95311.50;;;14.25;65.13
71621;BME280;59471;42.254;23.102;2024-02-26T11:47:21;95312.78;;;14.54;64.78
71621;BME280;59471;42.254;23.102;2024-02-26T11:49:48;95315.00;;;14.50;63.70
71621;BME280;59471;42.254;23.102;2024-02-26T11:52:15;95310.66;;;14.31;64.57
71621;BME280;59471;42.254;23.102;2024-02-26T11:54:53;95313.38;;;14.49;62.91
71621;BME280;59471;42.254;23.102;2024-02-26T12:00:10;95315.34;;;14.60;62.43
71621;BME280;59471;42.254;23.102;2024-02-26T12:02:45;95307.44;;;14.86;62.32
71621;BME280;59471;42.254;23.102;2024-02-26T12:05:19;95309.84;;;14.87;62.83
71621;BME280;59471;42.254;23.102;2024-02-26T12:08:09;95317.50;;;14.95;60.54
71621;BME280;59471;42.254;23.102;2024-02-26T12:10:39;95308.97;;;14.93;62.39
71621;BME280;59471;42.254;23.102;2024-02-26T12:13:10;95317.56;;;14.89;61.35
71621;BME280;59471;42.254;23.102;2024-02-26T12:15:44;95317.88;;;14.74;61.76
71621;BME280;59471;42.254;23.102;2024-02-26T12:18:16;95316.16;;;14.86;61.21
71621;BME280;59471;42.254;23.102;2024-02-26T12:20:42;95307.75;;;14.96;61.76
71621;BME280;59471;42.254;23.102;2024-02-26T12:23:16;95308.53;;;14.96;61.90
71621;BME280;59471;42.254;23.102;2024-02-26T12:25:45;95310.22;;;14.91;62.25
71621;BME280;59471;42.254;23.102;2024-02-26T12:28:14;95308.25;;;14.86;61.33
71621;BME280;59471;42.254;23.102;2024-02-26T12:30:40;95313.69;;;14.91;60.91
71621;BME280;59471;42.254;23.102;2024-02-26T12:33:05;95311.84;;;14.67;61.97
71621;BME280;59471;42.254;23.102;2024-02-26T12:35:34;95314.44;;;14.73;62.98
71621;BME280;59471;42.254;23.102;2024-02-26T12:38:00;95311.56;;;14.75;62.42
71621;BME280;59471;42.254;23.102;2024-02-26T12:40:26;95304.75;;;14.67;63.41
71621;BME280;59471;42.254;23.102;2024-02-26T12:42:53;95308.31;;;14.79;61.65
71621;BME280;59471;42.254;23.102;2024-02-26T12:45:20;95303.09;;;14.73;62.65
71621;BME280;59471;42.254;23.102;2024-02-26T12:47:46;95302.22;;;14.79;61.46
71621;BME280;59471;42.254;23.102;2024-02-26T12:50:13;95302.38;;;14.84;61.78
71621;BME280;59471;42.254;23.102;2024-02-26T12:52:43;95317.94;;;14.67;61.51